Terminal Aerodrome Forecast
Issued by NWS

Home | Current Version | Previous Version | Text Only | Print | Product List | Glossary On
Versions: 1 2 3 4 5 6 7 8 9 10 11 12 13 14 15 16
000
FTUS44 KMAF 191700
TAFHOB
TAF
KHOB 191720Z 1918/2018 36017G21KT P6SM SKC
     FM192100 36013KT P6SM FEW150
     FM200000 06008KT P6SM FEW200
     FM201500 14013KT P6SM FEW200=

USA.gov is the U.S. government's official web portal to all federal, state and local government web resources and services.